sensor_id;sensor_type;location;lat;lon;timestamp;P1;durP1;ratioP1;P2;durP2;ratioP2
75922;SDS011;64602;47.542;19.090;2022-12-18T00:00:23;38.97;;;14.37;;
75922;SDS011;64602;47.542;19.090;2022-12-18T00:05:25;41.08;;;14.52;;
75922;SDS011;64602;47.542;19.090;2022-12-18T00:10:27;39.05;;;13.48;;
75922;SDS011;64602;47.542;19.090;2022-12-18T00:15:30;35.97;;;13.33;;
75922;SDS011;64602;47.542;19.090;2022-12-18T00:20:35;38.28;;;13.57;;
75922;SDS011;64602;47.542;19.090;2022-12-18T00:25:38;34.70;;;12.80;;
75922;SDS011;64602;47.542;19.090;2022-12-18T00:30:40;35.67;;;13.73;;
75922;SDS011;64602;47.542;19.090;2022-12-18T00:35:43;33.85;;;12.20;;
75922;SDS011;64602;47.542;19.090;2022-12-18T00:40:45;38.47;;;14.10;;
75922;SDS011;64602;47.542;19.090;2022-12-18T00:45:47;35.07;;;13.37;;
75922;SDS011;64602;47.542;19.090;2022-12-18T00:50:49;39.63;;;14.33;;
75922;SDS011;64602;47.542;19.090;2022-12-18T00:55:52;43.08;;;13.70;;
75922;SDS011;64602;47.542;19.090;2022-12-18T01:00:54;40.53;;;13.00;;
75922;SDS011;64602;47.542;19.090;2022-12-18T01:05:56;31.67;;;12.67;;
75922;SDS011;64602;47.542;19.090;2022-12-18T01:10:58;35.38;;;12.80;;
75922;SDS011;64602;47.542;19.090;2022-12-18T01:16:00;39.42;;;13.88;;
75922;SDS011;64602;47.542;19.090;2022-12-18T01:21:10;40.87;;;13.77;;
75922;SDS011;64602;47.542;19.090;2022-12-18T01:26:15;37.47;;;14.63;;
75922;SDS011;64602;47.542;19.090;2022-12-18T01:31:19;36.70;;;13.95;;
75922;SDS011;64602;47.542;19.090;2022-12-18T01:36:26;35.40;;;13.17;;
75922;SDS011;64602;47.542;19.090;2022-12-18T01:41:30;37.90;;;13.97;;
75922;SDS011;64602;47.542;19.090;2022-12-18T01:46:53;35.38;;;14.07;;
75922;SDS011;64602;47.542;19.090;2022-12-18T01:51:55;33.80;;;12.35;;
75922;SDS011;64602;47.542;19.090;2022-12-18T01:56:57;42.07;;;14.63;;
75922;SDS011;64602;47.542;19.090;2022-12-18T02:01:59;35.63;;;13.35;;
75922;SDS011;64602;47.542;19.090;2022-12-18T02:12:16;36.67;;;13.23;;
75922;SDS011;64602;47.542;19.090;2022-12-18T02:17:20;35.30;;;13.48;;
75922;SDS011;64602;47.542;19.090;2022-12-18T02:27:36;38.70;;;13.67;;
75922;SDS011;64602;47.542;19.090;2022-12-18T02:32:40;33.67;;;14.33;;
75922;SDS011;64602;47.542;19.090;2022-12-18T02:37:46;38.75;;;13.80;;
75922;SDS011;64602;47.542;19.090;2022-12-18T02:42:49;38.38;;;13.88;;
75922;SDS011;64602;47.542;19.090;2022-12-18T02:47:51;35.60;;;13.87;;
75922;SDS011;64602;47.542;19.090;2022-12-18T02:53:17;34.10;;;13.85;;
75922;SDS011;64602;47.542;19.090;2022-12-18T03:03:42;34.87;;;14.90;;
75922;SDS011;64602;47.542;19.090;2022-12-18T03:08:47;42.03;;;14.57;;
75922;SDS011;64602;47.542;19.090;2022-12-18T03:13:54;39.83;;;15.02;;
75922;SDS011;64602;47.542;19.090;2022-12-18T03:19:01;36.50;;;13.70;;
75922;SDS011;64602;47.542;19.090;2022-12-18T03:24:06;38.37;;;14.83;;
75922;SDS011;64602;47.542;19.090;2022-12-18T03:34:46;40.10;;;14.45;;
75922;SDS011;64602;47.542;19.090;2022-12-18T03:39:52;33.97;;;13.90;;
75922;SDS011;64602;47.542;19.090;2022-12-18T03:44:59;42.03;;;13.50;;
75922;SDS011;64602;47.542;19.090;2022-12-18T03:50:15;38.83;;;13.95;;
75922;SDS011;64602;47.542;19.090;2022-12-18T03:55:21;38.07;;;13.87;;
75922;SDS011;64602;47.542;19.090;2022-12-18T04:00:27;37.85;;;13.75;;
75922;SDS011;64602;47.542;19.090;2022-12-18T04:05:31;39.10;;;14.50;;
75922;SDS011;64602;47.542;19.090;2022-12-18T04:10:37;34.13;;;13.27;;
75922;SDS011;64602;47.542;19.090;2022-12-18T04:15:39;35.17;;;14.23;;
75922;SDS011;64602;47.542;19.090;2022-12-18T04:20:41;38.75;;;13.88;;
75922;SDS011;64602;47.542;19.090;2022-12-18T04:25:43;37.58;;;13.65;;
75922;SDS011;64602;47.542;19.090;2022-12-18T04:30:45;34.20;;;13.63;;
75922;SDS011;64602;47.542;19.090;2022-12-18T04:35:48;33.03;;;12.60;;
75922;SDS011;64602;47.542;19.090;2022-12-18T04:40:50;31.77;;;13.10;;
75922;SDS011;64602;47.542;19.090;2022-12-18T04:45:52;32.57;;;13.23;;
75922;SDS011;64602;47.542;19.090;2022-12-18T04:50:54;35.30;;;14.02;;
75922;SDS011;64602;47.542;19.090;2022-12-18T04:56:10;36.30;;;14.43;;
75922;SDS011;64602;47.542;19.090;2022-12-18T05:01:14;33.93;;;13.43;;
75922;SDS011;64602;47.542;19.090;2022-12-18T05:06:18;31.40;;;13.57;;
75922;SDS011;64602;47.542;19.090;2022-12-18T05:11:20;38.00;;;13.82;;
75922;SDS011;64602;47.542;19.090;2022-12-18T05:16:22;44.95;;;14.70;;
75922;SDS011;64602;47.542;19.090;2022-12-18T05:21:24;39.13;;;14.27;;
75922;SDS011;64602;47.542;19.090;2022-12-18T05:26:26;35.20;;;14.32;;
75922;SDS011;64602;47.542;19.090;2022-12-18T05:31:28;35.92;;;13.30;;
75922;SDS011;64602;47.542;19.090;2022-12-18T05:36:38;36.30;;;13.37;;
75922;SDS011;64602;47.542;19.090;2022-12-18T05:41:40;37.08;;;13.77;;
75922;SDS011;64602;47.542;19.090;2022-12-18T05:46:43;39.85;;;14.10;;
75922;SDS011;64602;47.542;19.090;2022-12-18T05:51:45;35.57;;;13.67;;
75922;SDS011;64602;47.542;19.090;2022-12-18T05:56:47;39.43;;;13.50;;
75922;SDS011;64602;47.542;19.090;2022-12-18T06:01:49;37.30;;;12.63;;
75922;SDS011;64602;47.542;19.090;2022-12-18T06:06:52;35.92;;;13.18;;
75922;SDS011;64602;47.542;19.090;2022-12-18T06:11:54;38.80;;;14.60;;
75922;SDS011;64602;47.542;19.090;2022-12-18T06:16:56;35.90;;;13.32;;
75922;SDS011;64602;47.542;19.090;2022-12-18T06:21:58;41.95;;;14.57;;
75922;SDS011;64602;47.542;19.090;2022-12-18T06:27:00;30.83;;;13.03;;
75922;SDS011;64602;47.542;19.090;2022-12-18T06:32:02;32.10;;;13.57;;
75922;SDS011;64602;47.542;19.090;2022-12-18T06:37:04;38.42;;;13.35;;
75922;SDS011;64602;47.542;19.090;2022-12-18T06:42:06;36.73;;;13.53;;
75922;SDS011;64602;47.542;19.090;2022-12-18T06:47:09;37.07;;;13.83;;
75922;SDS011;64602;47.542;19.090;2022-12-18T06:52:11;31.67;;;13.65;;
75922;SDS011;64602;47.542;19.090;2022-12-18T06:57:13;40.53;;;15.40;;
75922;SDS011;64602;47.542;19.090;2022-12-18T07:02:15;41.80;;;14.10;;
75922;SDS011;64602;47.542;19.090;2022-12-18T07:07:17;32.08;;;13.32;;
75922;SDS011;64602;47.542;19.090;2022-12-18T07:12:19;37.70;;;14.27;;
75922;SDS011;64602;47.542;19.090;2022-12-18T07:17:21;38.03;;;14.33;;
75922;SDS011;64602;47.542;19.090;2022-12-18T07:22:24;35.80;;;13.45;;
75922;SDS011;64602;47.542;19.090;2022-12-18T07:27:27;35.83;;;14.50;;
75922;SDS011;64602;47.542;19.090;2022-12-18T07:32:30;43.37;;;14.90;;
75922;SDS011;64602;47.542;19.090;2022-12-18T07:37:32;39.07;;;14.83;;
75922;SDS011;64602;47.542;19.090;2022-12-18T07:42:34;41.33;;;14.68;;
75922;SDS011;64602;47.542;19.090;2022-12-18T07:47:37;39.40;;;13.88;;
75922;SDS011;64602;47.542;19.090;2022-12-18T07:52:39;37.97;;;14.67;;
75922;SDS011;64602;47.542;19.090;2022-12-18T07:57:41;40.70;;;14.50;;
75922;SDS011;64602;47.542;19.090;2022-12-18T08:02:56;37.58;;;15.88;;
75922;SDS011;64602;47.542;19.090;2022-12-18T08:07:58;39.23;;;14.07;;
75922;SDS011;64602;47.542;19.090;2022-12-18T08:13:00;34.22;;;14.30;;
75922;SDS011;64602;47.542;19.090;2022-12-18T08:18:06;35.17;;;14.35;;
75922;SDS011;64602;47.542;19.090;2022-12-18T08:23:14;38.90;;;13.67;;
75922;SDS011;64602;47.542;19.090;2022-12-18T08:28:17;34.20;;;13.60;;
75922;SDS011;64602;47.542;19.090;2022-12-18T08:33:19;34.28;;;14.18;;
75922;SDS011;64602;47.542;19.090;2022-12-18T08:38:21;34.78;;;14.32;;
75922;SDS011;64602;47.542;19.090;2022-12-18T08:43:24;37.97;;;15.63;;
75922;SDS011;64602;47.542;19.090;2022-12-18T08:48:45;39.33;;;14.90;;
75922;SDS011;64602;47.542;19.090;2022-12-18T08:53:48;34.50;;;13.95;;
75922;SDS011;64602;47.542;19.090;2022-12-18T08:58:53;35.70;;;15.37;;
75922;SDS011;64602;47.542;19.090;2022-12-18T09:03:56;38.35;;;15.07;;
75922;SDS011;64602;47.542;19.090;2022-12-18T09:08:58;40.67;;;16.08;;
75922;SDS011;64602;47.542;19.090;2022-12-18T09:14:01;38.90;;;16.37;;
75922;SDS011;64602;47.542;19.090;2022-12-18T09:19:04;41.17;;;16.57;;
75922;SDS011;64602;47.542;19.090;2022-12-18T09:24:08;39.33;;;16.30;;
75922;SDS011;64602;47.542;19.090;2022-12-18T09:29:15;40.67;;;16.45;;
75922;SDS011;64602;47.542;19.090;2022-12-18T09:34:19;39.77;;;16.43;;
75922;SDS011;64602;47.542;19.090;2022-12-18T09:39:23;41.17;;;16.58;;
75922;SDS011;64602;47.542;19.090;2022-12-18T09:49:49;39.53;;;15.80;;
75922;SDS011;64602;47.542;19.090;2022-12-18T09:55:02;40.12;;;16.60;;
75922;SDS011;64602;47.542;19.090;2022-12-18T10:00:09;38.22;;;16.67;;
75922;SDS011;64602;47.542;19.090;2022-12-18T10:05:23;42.33;;;16.20;;
75922;SDS011;64602;47.542;19.090;2022-12-18T10:16:00;37.67;;;15.90;;
75922;SDS011;64602;47.542;19.090;2022-12-18T10:21:16;36.33;;;15.63;;
75922;SDS011;64602;47.542;19.090;2022-12-18T10:26:21;37.80;;;15.40;;
75922;SDS011;64602;47.542;19.090;2022-12-18T10:31:23;38.67;;;16.52;;
75922;SDS011;64602;47.542;19.090;2022-12-18T10:36:26;35.25;;;15.52;;
75922;SDS011;64602;47.542;19.090;2022-12-18T10:41:28;37.93;;;16.90;;
75922;SDS011;64602;47.542;19.090;2022-12-18T10:46:32;36.97;;;17.83;;
75922;SDS011;64602;47.542;19.090;2022-12-18T10:51:35;33.72;;;16.10;;
75922;SDS011;64602;47.542;19.090;2022-12-18T10:56:39;35.40;;;18.20;;
75922;SDS011;64602;47.542;19.090;2022-12-18T11:07:00;35.60;;;18.08;;
75922;SDS011;64602;47.542;19.090;2022-12-18T11:12:25;33.15;;;17.60;;
75922;SDS011;64602;47.542;19.090;2022-12-18T11:17:33;33.53;;;16.73;;
75922;SDS011;64602;47.542;19.090;2022-12-18T11:22:37;33.45;;;17.73;;
75922;SDS011;64602;47.542;19.090;2022-12-18T11:27:40;30.20;;;16.25;;
75922;SDS011;64602;47.542;19.090;2022-12-18T11:32:43;28.40;;;15.87;;
75922;SDS011;64602;47.542;19.090;2022-12-18T11:37:54;32.17;;;16.05;;
75922;SDS011;64602;47.542;19.090;2022-12-18T11:43:11;26.83;;;14.60;;
75922;SDS011;64602;47.542;19.090;2022-12-18T11:54:14;26.43;;;14.63;;
75922;SDS011;64602;47.542;19.090;2022-12-18T11:59:35;31.25;;;15.35;;
75922;SDS011;64602;47.542;19.090;2022-12-18T12:09:57;29.23;;;16.47;;
75922;SDS011;64602;47.542;19.090;2022-12-18T12:15:19;28.20;;;15.95;;
75922;SDS011;64602;47.542;19.090;2022-12-18T12:25:52;29.90;;;15.47;;
75922;SDS011;64602;47.542;19.090;2022-12-18T12:41:24;27.63;;;15.77;;
75922;SDS011;64602;47.542;19.090;2022-12-18T12:46:48;31.00;;;16.03;;
75922;SDS011;64602;47.542;19.090;2022-12-18T12:51:57;31.87;;;15.80;;
75922;SDS011;64602;47.542;19.090;2022-12-18T13:02:44;31.20;;;15.53;;
75922;SDS011;64602;47.542;19.090;2022-12-18T13:07:52;31.23;;;15.02;;
75922;SDS011;64602;47.542;19.090;2022-12-18T13:33:46;32.97;;;14.37;;
75922;SDS011;64602;47.542;19.090;2022-12-18T13:44:37;37.63;;;16.62;;
75922;SDS011;64602;47.542;19.090;2022-12-18T13:49:43;29.92;;;13.70;;
75922;SDS011;64602;47.542;19.090;2022-12-18T13:54:52;32.23;;;13.60;;
75922;SDS011;64602;47.542;19.090;2022-12-18T13:59:57;29.25;;;13.40;;
75922;SDS011;64602;47.542;19.090;2022-12-18T14:05:00;35.58;;;14.43;;
75922;SDS011;64602;47.542;19.090;2022-12-18T14:10:02;35.47;;;19.00;;
75922;SDS011;64602;47.542;19.090;2022-12-18T14:20:27;33.15;;;15.15;;
75922;SDS011;64602;47.542;19.090;2022-12-18T14:25:32;34.90;;;15.73;;
75922;SDS011;64602;47.542;19.090;2022-12-18T14:30:36;36.20;;;15.00;;
75922;SDS011;64602;47.542;19.090;2022-12-18T14:35:41;35.10;;;14.95;;
75922;SDS011;64602;47.542;19.090;2022-12-18T14:40:45;37.53;;;16.65;;
75922;SDS011;64602;47.542;19.090;2022-12-18T14:45:47;42.33;;;15.97;;
75922;SDS011;64602;47.542;19.090;2022-12-18T14:51:05;38.45;;;16.73;;
75922;SDS011;64602;47.542;19.090;2022-12-18T14:56:20;39.45;;;16.37;;
75922;SDS011;64602;47.542;19.090;2022-12-18T15:01:31;41.57;;;16.50;;
75922;SDS011;64602;47.542;19.090;2022-12-18T15:06:37;41.63;;;17.17;;
75922;SDS011;64602;47.542;19.090;2022-12-18T15:16:43;40.10;;;16.97;;
75922;SDS011;64602;47.542;19.090;2022-12-18T15:21:47;40.07;;;18.40;;
75922;SDS011;64602;47.542;19.090;2022-12-18T15:26:49;45.85;;;18.90;;
75922;SDS011;64602;47.542;19.090;2022-12-18T15:31:58;44.38;;;19.20;;
75922;SDS011;64602;47.542;19.090;2022-12-18T15:37:01;46.27;;;18.50;;
75922;SDS011;64602;47.542;19.090;2022-12-18T15:42:07;45.72;;;18.55;;
75922;SDS011;64602;47.542;19.090;2022-12-18T15:47:29;39.13;;;16.37;;
75922;SDS011;64602;47.542;19.090;2022-12-18T15:52:32;40.80;;;17.77;;
75922;SDS011;64602;47.542;19.090;2022-12-18T15:57:41;37.08;;;15.68;;
75922;SDS011;64602;47.542;19.090;2022-12-18T16:02:43;40.40;;;16.80;;
75922;SDS011;64602;47.542;19.090;2022-12-18T16:07:46;41.67;;;16.90;;
75922;SDS011;64602;47.542;19.090;2022-12-18T16:12:48;42.67;;;16.87;;
75922;SDS011;64602;47.542;19.090;2022-12-18T16:17:50;36.30;;;16.27;;
75922;SDS011;64602;47.542;19.090;2022-12-18T16:22:53;42.45;;;15.45;;
75922;SDS011;64602;47.542;19.090;2022-12-18T16:27:55;39.50;;;16.43;;
75922;SDS011;64602;47.542;19.090;2022-12-18T16:32:58;41.22;;;17.23;;
75922;SDS011;64602;47.542;19.090;2022-12-18T16:38:00;40.10;;;17.73;;
75922;SDS011;64602;47.542;19.090;2022-12-18T16:43:02;41.40;;;17.57;;
75922;SDS011;64602;47.542;19.090;2022-12-18T16:48:04;36.47;;;16.65;;
75922;SDS011;64602;47.542;19.090;2022-12-18T16:53:07;40.42;;;18.02;;
75922;SDS011;64602;47.542;19.090;2022-12-18T16:58:09;40.47;;;17.73;;
75922;SDS011;64602;47.542;19.090;2022-12-18T17:03:11;41.27;;;18.77;;
75922;SDS011;64602;47.542;19.090;2022-12-18T17:08:14;39.05;;;17.12;;
75922;SDS011;64602;47.542;19.090;2022-12-18T17:13:16;39.63;;;17.95;;
75922;SDS011;64602;47.542;19.090;2022-12-18T17:18:24;37.50;;;17.33;;
75922;SDS011;64602;47.542;19.090;2022-12-18T17:23:27;40.20;;;17.50;;
75922;SDS011;64602;47.542;19.090;2022-12-18T17:28:30;37.95;;;17.15;;
75922;SDS011;64602;47.542;19.090;2022-12-18T17:33:32;40.90;;;17.60;;
75922;SDS011;64602;47.542;19.090;2022-12-18T17:38:35;38.92;;;17.42;;
75922;SDS011;64602;47.542;19.090;2022-12-18T17:43:37;44.10;;;16.95;;
75922;SDS011;64602;47.542;19.090;2022-12-18T17:48:48;43.10;;;17.80;;
75922;SDS011;64602;47.542;19.090;2022-12-18T17:53:50;43.43;;;17.93;;
75922;SDS011;64602;47.542;19.090;2022-12-18T17:58:53;43.75;;;16.75;;
75922;SDS011;64602;47.542;19.090;2022-12-18T18:03:55;49.90;;;18.08;;
75922;SDS011;64602;47.542;19.090;2022-12-18T18:08:57;46.53;;;18.67;;
75922;SDS011;64602;47.542;19.090;2022-12-18T18:13:59;41.33;;;17.08;;
75922;SDS011;64602;47.542;19.090;2022-12-18T18:19:03;45.40;;;18.98;;
75922;SDS011;64602;47.542;19.090;2022-12-18T18:24:07;39.53;;;16.97;;
75922;SDS011;64602;47.542;19.090;2022-12-18T18:29:18;39.38;;;17.62;;
75922;SDS011;64602;47.542;19.090;2022-12-18T18:34:23;37.70;;;16.73;;
75922;SDS011;64602;47.542;19.090;2022-12-18T18:39:27;41.00;;;18.00;;
75922;SDS011;64602;47.542;19.090;2022-12-18T18:44:30;48.33;;;18.63;;
75922;SDS011;64602;47.542;19.090;2022-12-18T18:49:32;41.35;;;19.75;;
75922;SDS011;64602;47.542;19.090;2022-12-18T18:54:34;42.28;;;18.48;;
75922;SDS011;64602;47.542;19.090;2022-12-18T18:59:37;48.03;;;20.30;;
75922;SDS011;64602;47.542;19.090;2022-12-18T19:04:39;54.95;;;20.77;;
75922;SDS011;64602;47.542;19.090;2022-12-18T19:09:47;54.00;;;22.50;;
75922;SDS011;64602;47.542;19.090;2022-12-18T19:14:52;58.80;;;23.17;;
75922;SDS011;64602;47.542;19.090;2022-12-18T19:19:55;57.62;;;24.67;;
75922;SDS011;64602;47.542;19.090;2022-12-18T19:24:57;67.03;;;25.58;;
75922;SDS011;64602;47.542;19.090;2022-12-18T19:29:59;66.20;;;27.73;;
75922;SDS011;64602;47.542;19.090;2022-12-18T19:35:01;62.73;;;28.13;;
75922;SDS011;64602;47.542;19.090;2022-12-18T19:40:04;66.35;;;29.77;;
75922;SDS011;64602;47.542;19.090;2022-12-18T19:45:13;69.15;;;28.27;;
75922;SDS011;64602;47.542;19.090;2022-12-18T19:50:15;63.30;;;28.93;;
75922;SDS011;64602;47.542;19.090;2022-12-18T19:55:18;65.47;;;28.62;;
75922;SDS011;64602;47.542;19.090;2022-12-18T20:00:20;69.68;;;28.58;;
75922;SDS011;64602;47.542;19.090;2022-12-18T20:05:22;66.00;;;29.40;;
75922;SDS011;64602;47.542;19.090;2022-12-18T20:10:26;68.28;;;27.75;;
75922;SDS011;64602;47.542;19.090;2022-12-18T20:15:28;65.10;;;29.37;;
75922;SDS011;64602;47.542;19.090;2022-12-18T20:20:30;69.27;;;29.97;;
75922;SDS011;64602;47.542;19.090;2022-12-18T20:25:32;78.90;;;32.33;;
75922;SDS011;64602;47.542;19.090;2022-12-18T20:30:34;70.80;;;31.52;;
75922;SDS011;64602;47.542;19.090;2022-12-18T20:35:36;68.72;;;31.37;;
75922;SDS011;64602;47.542;19.090;2022-12-18T20:40:41;71.47;;;31.83;;
75922;SDS011;64602;47.542;19.090;2022-12-18T20:45:44;74.97;;;30.33;;
75922;SDS011;64602;47.542;19.090;2022-12-18T20:50:55;60.28;;;26.20;;
75922;SDS011;64602;47.542;19.090;2022-12-18T20:56:16;61.57;;;27.07;;
75922;SDS011;64602;47.542;19.090;2022-12-18T21:01:22;57.08;;;27.73;;
75922;SDS011;64602;47.542;19.090;2022-12-18T21:06:25;65.15;;;27.67;;
75922;SDS011;64602;47.542;19.090;2022-12-18T21:11:29;63.73;;;28.10;;
75922;SDS011;64602;47.542;19.090;2022-12-18T21:16:51;67.80;;;30.90;;
75922;SDS011;64602;47.542;19.090;2022-12-18T21:21:53;70.62;;;31.37;;
75922;SDS011;64602;47.542;19.090;2022-12-18T21:26:56;67.00;;;28.90;;
75922;SDS011;64602;47.542;19.090;2022-12-18T21:31:59;70.43;;;28.27;;
75922;SDS011;64602;47.542;19.090;2022-12-18T21:37:02;71.95;;;29.17;;
75922;SDS011;64602;47.542;19.090;2022-12-18T21:42:05;67.32;;;28.90;;
75922;SDS011;64602;47.542;19.090;2022-12-18T21:47:26;72.97;;;29.60;;
75922;SDS011;64602;47.542;19.090;2022-12-18T21:52:28;71.62;;;30.20;;
75922;SDS011;64602;47.542;19.090;2022-12-18T21:57:33;70.80;;;31.15;;
75922;SDS011;64602;47.542;19.090;2022-12-18T22:02:35;69.67;;;29.07;;
75922;SDS011;64602;47.542;19.090;2022-12-18T22:07:37;69.10;;;29.30;;
75922;SDS011;64602;47.542;19.090;2022-12-18T22:12:39;77.53;;;32.30;;
75922;SDS011;64602;47.542;19.090;2022-12-18T22:17:46;74.80;;;32.70;;
75922;SDS011;64602;47.542;19.090;2022-12-18T22:22:48;75.50;;;30.47;;
75922;SDS011;64602;47.542;19.090;2022-12-18T22:27:52;74.05;;;31.55;;
75922;SDS011;64602;47.542;19.090;2022-12-18T22:33:12;75.87;;;31.52;;
75922;SDS011;64602;47.542;19.090;2022-12-18T22:38:14;72.20;;;28.47;;
75922;SDS011;64602;47.542;19.090;2022-12-18T22:43:18;70.43;;;28.65;;
75922;SDS011;64602;47.542;19.090;2022-12-18T22:48:20;74.37;;;30.55;;
75922;SDS011;64602;47.542;19.090;2022-12-18T22:53:22;63.53;;;28.27;;
75922;SDS011;64602;47.542;19.090;2022-12-18T22:58:25;63.40;;;28.60;;
75922;SDS011;64602;47.542;19.090;2022-12-18T23:03:27;63.70;;;27.55;;
75922;SDS011;64602;47.542;19.090;2022-12-18T23:08:29;69.50;;;29.55;;
75922;SDS011;64602;47.542;19.090;2022-12-18T23:13:32;70.17;;;28.17;;
75922;SDS011;64602;47.542;19.090;2022-12-18T23:18:35;68.20;;;27.17;;
75922;SDS011;64602;47.542;19.090;2022-12-18T23:23:37;62.17;;;26.58;;
75922;SDS011;64602;47.542;19.090;2022-12-18T23:28:40;61.17;;;23.83;;
75922;SDS011;64602;47.542;19.090;2022-12-18T23:33:43;59.00;;;23.50;;
75922;SDS011;64602;47.542;19.090;2022-12-18T23:38:47;60.58;;;22.37;;
75922;SDS011;64602;47.542;19.090;2022-12-18T23:43:50;54.33;;;21.20;;
75922;SDS011;64602;47.542;19.090;2022-12-18T23:48:53;46.07;;;20.50;;
75922;SDS011;64602;47.542;19.090;2022-12-18T23:53:57;57.33;;;21.33;;
75922;SDS011;64602;47.542;19.090;2022-12-18T23:59:01;53.78;;;20.55;;
